This is the latest recevied weather packets stored in our database for station/object SQ9PDE-13. If no packets are shown the sender has not sent any weather packets the latest 10 day(s).
| Time | Temp. | Humidity | Pressure | Rain* | Wind** | Luminosity | Snow |
|---|---|---|---|---|---|---|---|
| 1778087889 | 20.56° C | 44% | 1004.2 hPa | - | - | - | - |
| 1778087589 | 21.11° C | 43% | 1004.2 hPa | - | - | - | - |
| 1778087288 | 21.11° C | 43% | 1004.2 hPa | - | - | - | - |
| 1778086988 | 21.11° C | 42% | 1004.2 hPa | - | - | - | - |
| 1778086718 | 21.11° C | 40% | 1004.1 hPa | - | - | - | - |
| 1778086687 | 21.11° C | 40% | 1004.1 hPa | - | - | - | - |
| 1778086387 | 21.11° C | 41% | 1004.1 hPa | - | - | - | - |
| 1778086143 | 21.11° C | 43% | 1004.1 hPa | - | - | - | - |
| 1778086086 | 21.11° C | 43% | 1004.1 hPa | - | - | - | - |
| 1778085786 | 21.11° C | 44% | 1004.4 hPa | - | - | - | - |
| 1778085485 | 21.67° C | 44% | 1004.3 hPa | - | - | - | - |
| 1778085185 | 21.67° C | 43% | 1004.3 hPa | - | - | - | - |
| 1778084936 | 22.22° C | 44% | 1004.2 hPa | - | - | - | - |
| 1778084884 | 22.22° C | 44% | 1004.2 hPa | - | - | - | - |
| 1778084724 | 22.22° C | 43% | 1004.1 hPa | - | - | - | - |
| 1778084723 | 22.22° C | 38% | 1003.9 hPa | - | - | - | - |
| 1778084584 | 22.22° C | 43% | 1004.1 hPa | - | - | - | - |
| 1778084020 | 22.78° C | 41% | 1003.9 hPa | - | - | - | - |
| 1778083983 | 22.78° C | 41% | 1003.9 hPa | - | - | - | - |
| 1778083682 | 23.33° C | 41% | 1003.8 hPa | - | - | - | - |
| 1778083382 | 23.89° C | 40% | 1003.6 hPa | - | - | - | - |
| 1778083081 | 23.89° C | 40% | 1003.7 hPa | - | - | - | - |
| 1778082781 | 23.89° C | 41% | 1003.8 hPa | - | - | - | - |
| 1778082480 | 23.89° C | 39% | 1003.8 hPa | - | - | - | - |
| 1778082180 | 23.33° C | 40% | 1003.9 hPa | - | - | - | - |
* Rain since midnight (hover to see other rain measurements)
** Current wind speed in m/s (hover to see current wind gust speed)